createdAt,value
2018-12-04T00:00:03.468Z,984.73
2018-12-04T00:01:04.597Z,984.76
2018-12-04T00:02:03.434Z,984.75
2018-12-04T00:03:03.436Z,984.75
2018-12-04T00:04:03.426Z,984.81
2018-12-04T00:05:03.422Z,984.8
2018-12-04T00:06:03.418Z,984.79
2018-12-04T00:07:03.415Z,984.84
2018-12-04T00:08:03.410Z,984.84
2018-12-04T00:09:03.409Z,984.81
2018-12-04T00:10:03.408Z,984.83
2018-12-04T00:11:03.399Z,984.85
2018-12-04T00:12:03.398Z,984.9
2018-12-04T00:13:03.392Z,984.92
2018-12-04T00:14:03.388Z,984.97
2018-12-04T00:15:03.385Z,984.96
2018-12-04T00:16:03.380Z,985
2018-12-04T00:17:03.374Z,985.01
2018-12-04T00:18:03.371Z,984.98
2018-12-04T00:19:03.369Z,984.95
2018-12-04T00:20:03.365Z,984.98
2018-12-04T00:21:03.361Z,984.99
2018-12-04T00:22:03.355Z,984.89
2018-12-04T00:23:03.354Z,984.91
2018-12-04T00:24:03.350Z,984.91
2018-12-04T00:25:03.356Z,984.9
2018-12-04T00:26:03.346Z,984.88
2018-12-04T00:27:03.341Z,984.91
2018-12-04T00:28:03.336Z,984.91
2018-12-04T00:29:03.332Z,984.88
2018-12-04T00:30:03.324Z,984.93
2018-12-04T00:31:03.321Z,984.87
2018-12-04T00:32:03.317Z,984.92
2018-12-04T00:33:03.313Z,984.93
2018-12-04T00:34:03.308Z,984.96
2018-12-04T00:35:03.305Z,984.99
2018-12-04T00:36:03.302Z,984.96
2018-12-04T00:37:03.297Z,985
2018-12-04T00:38:03.293Z,985.08
2018-12-04T00:39:03.290Z,985.07
2018-12-04T00:40:03.295Z,985.03
2018-12-04T00:41:03.281Z,985.07
2018-12-04T00:42:03.274Z,985.12
2018-12-04T00:43:03.274Z,985.08
2018-12-04T00:44:03.266Z,985.04
2018-12-04T00:45:03.286Z,984.97
2018-12-04T00:46:03.261Z,984.93
2018-12-04T00:47:03.258Z,984.88
2018-12-04T00:48:03.253Z,984.84
2018-12-04T00:49:03.255Z,984.87
2018-12-04T00:50:03.245Z,984.86
2018-12-04T00:51:03.241Z,984.9
2018-12-04T00:52:03.239Z,984.9
2018-12-04T00:53:03.234Z,984.87
2018-12-04T00:54:03.232Z,984.9
2018-12-04T00:55:03.223Z,984.94
2018-12-04T00:56:03.221Z,984.91
2018-12-04T00:57:03.221Z,984.93
2018-12-04T00:58:03.213Z,984.99
2018-12-04T00:59:03.206Z,985.03
2018-12-04T01:00:03.223Z,985.07
2018-12-04T01:01:03.200Z,985.15
2018-12-04T01:02:03.195Z,985.17
2018-12-04T01:03:03.193Z,985.21
2018-12-04T01:04:03.193Z,985.28
2018-12-04T01:05:03.187Z,985.27
2018-12-04T01:06:03.180Z,985.31
2018-12-04T01:07:03.175Z,985.3
2018-12-04T01:08:03.171Z,985.38
2018-12-04T01:09:03.166Z,985.4
2018-12-04T01:10:03.164Z,985.45
2018-12-04T01:11:03.153Z,985.47
2018-12-04T01:12:03.183Z,985.49
2018-12-04T01:13:03.146Z,985.48
2018-12-04T01:14:03.140Z,985.5
2018-12-04T01:15:03.136Z,985.53
2018-12-04T01:16:03.149Z,985.57
2018-12-04T01:17:03.130Z,985.61
2018-12-04T01:18:03.121Z,985.65
2018-12-04T01:19:03.117Z,985.62
2018-12-04T01:20:03.114Z,985.6
2018-12-04T01:21:03.115Z,985.58
2018-12-04T01:22:03.108Z,985.57
2018-12-04T01:23:03.107Z,985.56
2018-12-04T01:24:03.098Z,985.53
2018-12-04T01:25:03.094Z,985.53
2018-12-04T01:26:03.089Z,985.54
2018-12-04T01:27:03.087Z,985.57
2018-12-04T01:28:03.077Z,985.62
2018-12-04T01:29:03.088Z,985.63
2018-12-04T01:30:03.070Z,985.68
2018-12-04T01:31:03.065Z,985.71
2018-12-04T01:32:03.060Z,985.71
2018-12-04T01:33:03.056Z,985.71
2018-12-04T01:34:03.056Z,985.7
2018-12-04T01:35:03.049Z,985.66
2018-12-04T01:36:03.039Z,985.67
2018-12-04T01:37:03.034Z,985.69
2018-12-04T01:38:03.043Z,985.69
2018-12-04T01:39:03.028Z,985.69
2018-12-04T01:40:03.024Z,985.68
2018-12-04T01:41:03.018Z,985.69
2018-12-04T01:42:03.014Z,985.7
2018-12-04T01:43:03.008Z,985.66
2018-12-04T01:44:03.006Z,985.66
2018-12-04T01:45:03.002Z,985.66
2018-12-04T01:46:02.993Z,985.67
2018-12-04T01:47:02.991Z,985.68
2018-12-04T01:48:02.988Z,985.69
2018-12-04T01:49:02.980Z,985.64
2018-12-04T01:50:02.976Z,985.67
2018-12-04T01:51:02.978Z,985.71
2018-12-04T01:52:02.965Z,985.71
2018-12-04T01:53:02.970Z,985.74
2018-12-04T01:54:02.959Z,985.72
2018-12-04T01:55:02.950Z,985.74
2018-12-04T01:56:02.945Z,985.76
2018-12-04T01:57:02.946Z,985.77
2018-12-04T01:58:02.939Z,985.79
2018-12-04T01:59:02.935Z,985.79
2018-12-04T02:00:02.928Z,985.78
2018-12-04T02:01:02.927Z,985.75
2018-12-04T02:02:02.918Z,985.79
2018-12-04T02:03:02.914Z,985.8
2018-12-04T02:04:02.912Z,985.81
2018-12-04T02:05:02.909Z,985.84
2018-12-04T02:06:02.899Z,985.83
2018-12-04T02:07:02.893Z,985.8
2018-12-04T02:08:02.888Z,985.9
2018-12-04T02:09:02.882Z,985.88
2018-12-04T02:10:02.880Z,985.9
2018-12-04T02:11:02.875Z,985.89
2018-12-04T02:12:02.866Z,985.85
2018-12-04T02:13:02.872Z,985.85
2018-12-04T02:14:02.861Z,985.88
2018-12-04T02:15:02.853Z,985.99
2018-12-04T02:16:02.856Z,985.94
2018-12-04T02:17:02.861Z,985.92
2018-12-04T02:18:02.839Z,985.96
2018-12-04T02:19:02.832Z,985.99
2018-12-04T02:20:02.828Z,985.99
2018-12-04T02:21:02.822Z,985.99
2018-12-04T02:22:02.818Z,985.97
2018-12-04T02:23:02.983Z,985.94
2018-12-04T02:24:02.811Z,985.97
2018-12-04T02:25:02.803Z,985.97
2018-12-04T02:26:02.797Z,985.92
2018-12-04T02:27:02.791Z,985.94
2018-12-04T02:28:02.786Z,985.95
2018-12-04T02:29:02.783Z,985.87
2018-12-04T02:30:02.779Z,985.96
2018-12-04T02:31:02.771Z,985.94
2018-12-04T02:32:02.777Z,985.95
2018-12-04T02:33:02.763Z,985.99
2018-12-04T02:34:02.758Z,985.99
2018-12-04T02:35:02.752Z,986.03
2018-12-04T02:36:02.749Z,986.01
2018-12-04T02:37:02.745Z,986.07
2018-12-04T02:38:02.736Z,986.04
2018-12-04T02:39:02.737Z,986.07
2018-12-04T02:40:02.730Z,986.05
2018-12-04T02:41:02.724Z,986.05
2018-12-04T02:42:02.717Z,986
2018-12-04T02:43:02.721Z,985.99
2018-12-04T02:44:02.719Z,985.96
2018-12-04T02:45:02.703Z,986.04
2018-12-04T02:46:02.699Z,986.03
2018-12-04T02:47:02.693Z,986.05
2018-12-04T02:48:02.688Z,986.07
2018-12-04T02:49:02.685Z,986.08
2018-12-04T02:50:02.678Z,986.05
2018-12-04T02:51:02.673Z,986.07
2018-12-04T02:52:02.666Z,986.04
2018-12-04T02:53:02.662Z,986.06
2018-12-04T02:54:02.672Z,986.09
2018-12-04T02:55:02.664Z,986.14
2018-12-04T02:56:02.651Z,986.11
2018-12-04T02:57:02.644Z,986.17
2018-12-04T02:58:02.641Z,986.15
2018-12-04T02:59:02.636Z,986.2
2018-12-04T03:00:02.633Z,986.16
2018-12-04T03:01:02.628Z,986.22
2018-12-04T03:02:02.625Z,986.23
2018-12-04T03:03:02.628Z,986.24
2018-12-04T03:04:02.610Z,986.3
2018-12-04T03:05:02.606Z,986.27
2018-12-04T03:06:02.602Z,986.28
2018-12-04T03:07:02.613Z,986.29
2018-12-04T03:08:02.595Z,986.29
2018-12-04T03:09:02.587Z,986.3
2018-12-04T03:10:02.584Z,986.3
2018-12-04T03:11:02.612Z,986.37
2018-12-04T03:12:02.573Z,986.35
2018-12-04T03:13:02.568Z,986.38
2018-12-04T03:14:02.580Z,986.34
2018-12-04T03:15:02.559Z,986.33
2018-12-04T03:16:02.553Z,986.36
2018-12-04T03:17:02.547Z,986.38
2018-12-04T03:18:02.543Z,986.36
2018-12-04T03:19:02.541Z,986.38
2018-12-04T03:20:02.564Z,986.37
2018-12-04T03:21:02.538Z,986.4
2018-12-04T03:22:02.527Z,986.44
2018-12-04T03:23:02.522Z,986.44
2018-12-04T03:24:02.514Z,986.42
2018-12-04T03:25:02.516Z,986.47
2018-12-04T03:26:02.514Z,986.44
2018-12-04T03:27:02.500Z,986.52
2018-12-04T03:28:02.496Z,986.52
2018-12-04T03:29:02.492Z,986.52
2018-12-04T03:30:02.486Z,986.52
2018-12-04T03:31:02.485Z,986.53
2018-12-04T03:32:02.485Z,986.53
2018-12-04T03:33:02.512Z,986.53
2018-12-04T03:34:02.472Z,986.51
2018-12-04T03:35:02.464Z,986.54
2018-12-04T03:36:02.490Z,986.6
2018-12-04T03:37:02.456Z,986.63
2018-12-04T03:38:02.452Z,986.65
2018-12-04T03:39:02.445Z,986.69
2018-12-04T03:40:02.446Z,986.75
2018-12-04T03:41:02.436Z,986.7
2018-12-04T03:42:02.429Z,986.65
2018-12-04T03:43:02.424Z,986.69
2018-12-04T03:44:02.423Z,986.66
2018-12-04T03:45:02.416Z,986.7
2018-12-04T03:46:02.414Z,986.72
2018-12-04T03:47:02.407Z,986.73
2018-12-04T03:48:02.403Z,986.72
2018-12-04T03:49:02.398Z,986.75
2018-12-04T03:50:02.398Z,986.74
2018-12-04T03:51:02.388Z,986.76
2018-12-04T03:52:02.434Z,986.81
2018-12-04T03:53:02.382Z,986.82
2018-12-04T03:54:02.383Z,986.81
2018-12-04T03:55:02.380Z,986.84
2018-12-04T03:56:02.384Z,986.84
2018-12-04T03:57:02.380Z,986.89
2018-12-04T03:58:02.355Z,986.92
2018-12-04T03:59:02.351Z,986.93
2018-12-04T04:00:02.347Z,986.98
2018-12-04T04:01:02.342Z,986.98
2018-12-04T04:02:02.342Z,987.04
2018-12-04T04:03:02.351Z,987.08
2018-12-04T04:04:02.342Z,987.13
2018-12-04T04:05:02.325Z,987.14
2018-12-04T04:06:02.326Z,987.17
2018-12-04T04:07:02.328Z,987.16
2018-12-04T04:08:02.311Z,987.17
2018-12-04T04:09:02.307Z,987.17
2018-12-04T04:10:02.310Z,987.24
2018-12-04T04:11:02.306Z,987.26
2018-12-04T04:12:02.297Z,987.3
2018-12-04T04:13:02.288Z,987.27
2018-12-04T04:14:02.282Z,987.26
2018-12-04T04:15:02.281Z,987.26
2018-12-04T04:16:02.274Z,987.25
2018-12-04T04:17:02.274Z,987.22
2018-12-04T04:18:02.266Z,987.27
2018-12-04T04:19:02.269Z,987.23
2018-12-04T04:20:02.258Z,987.28
2018-12-04T04:21:02.259Z,987.33
2018-12-04T04:22:02.258Z,987.31
2018-12-04T04:23:02.246Z,987.35
2018-12-04T04:24:02.238Z,987.41
2018-12-04T04:25:02.236Z,987.44
2018-12-04T04:26:02.232Z,987.51
2018-12-04T04:27:02.227Z,987.51
2018-12-04T04:28:02.223Z,987.45
2018-12-04T04:29:02.220Z,987.49
2018-12-04T04:30:02.216Z,987.53
2018-12-04T04:31:02.210Z,987.54
2018-12-04T04:32:02.211Z,987.45
2018-12-04T04:33:02.201Z,987.53
2018-12-04T04:34:02.203Z,987.54
2018-12-04T04:35:02.193Z,987.53
2018-12-04T04:36:02.190Z,987.53
2018-12-04T04:37:02.183Z,987.6
2018-12-04T04:38:02.182Z,987.55
2018-12-04T04:39:02.178Z,987.64
2018-12-04T04:40:02.171Z,987.62
2018-12-04T04:41:02.164Z,987.62
2018-12-04T04:42:02.161Z,987.61
2018-12-04T04:43:02.166Z,987.65
2018-12-04T04:44:02.157Z,987.67
2018-12-04T04:45:02.151Z,987.7
2018-12-04T04:46:02.157Z,987.7
2018-12-04T04:47:02.152Z,987.71
2018-12-04T04:48:02.133Z,987.62
2018-12-04T04:49:02.136Z,987.64
2018-12-04T04:50:02.135Z,987.66
2018-12-04T04:51:02.120Z,987.64
2018-12-04T04:52:02.155Z,987.73
2018-12-04T04:53:02.110Z,987.71
2018-12-04T04:54:02.107Z,987.75
2018-12-04T04:55:02.104Z,987.81
2018-12-04T04:56:02.097Z,987.79
2018-12-04T04:57:02.098Z,987.86
2018-12-04T04:58:02.088Z,987.91
2018-12-04T04:59:02.084Z,987.9
2018-12-04T05:00:02.093Z,987.89
2018-12-04T05:01:02.078Z,987.9
2018-12-04T05:02:02.069Z,987.89
2018-12-04T05:03:02.065Z,987.94
2018-12-04T05:04:02.059Z,987.89
2018-12-04T05:05:02.058Z,987.91
2018-12-04T05:06:02.053Z,987.9
2018-12-04T05:07:02.048Z,987.96
2018-12-04T05:08:02.046Z,987.97
2018-12-04T05:09:02.043Z,987.99
2018-12-04T05:10:02.036Z,987.88
2018-12-04T05:11:02.029Z,987.92
2018-12-04T05:12:02.023Z,987.92
2018-12-04T05:13:02.021Z,987.99
2018-12-04T05:14:02.018Z,988
2018-12-04T05:15:02.024Z,987.99
2018-12-04T05:16:02.009Z,988.02
2018-12-04T05:17:02.006Z,988.05
2018-12-04T05:18:01.997Z,988.06
2018-12-04T05:19:01.992Z,988.06
2018-12-04T05:20:01.988Z,988.09
2018-12-04T05:21:01.986Z,988.09
2018-12-04T05:22:01.980Z,988.1
2018-12-04T05:23:01.975Z,988.1
2018-12-04T05:24:01.971Z,988.16
2018-12-04T05:25:01.967Z,988.1
2018-12-04T05:26:01.961Z,988.19
2018-12-04T05:27:01.956Z,988.23
2018-12-04T05:28:01.962Z,988.26
2018-12-04T05:29:01.959Z,988.32
2018-12-04T05:30:01.941Z,988.38
2018-12-04T05:31:01.937Z,988.4
2018-12-04T05:32:01.937Z,988.45
2018-12-04T05:33:01.929Z,988.44
2018-12-04T05:34:01.923Z,988.5
2018-12-04T05:35:01.921Z,988.51
2018-12-04T05:36:01.916Z,988.56
2018-12-04T05:37:01.916Z,988.64
2018-12-04T05:38:01.907Z,988.63
2018-12-04T05:39:01.902Z,988.66
2018-12-04T05:40:01.898Z,988.67
2018-12-04T05:41:01.890Z,988.66
2018-12-04T05:42:01.887Z,988.72
2018-12-04T05:43:01.894Z,988.72
2018-12-04T05:44:01.886Z,988.7
2018-12-04T05:45:01.876Z,988.71
2018-12-04T05:46:01.937Z,988.74
2018-12-04T05:47:01.864Z,988.77
2018-12-04T05:48:01.859Z,988.81
2018-12-04T05:49:01.857Z,988.81
2018-12-04T05:50:01.868Z,988.78
2018-12-04T05:51:01.848Z,988.84
2018-12-04T05:52:01.840Z,988.87
2018-12-04T05:53:01.837Z,988.92
2018-12-04T05:54:01.829Z,988.91
2018-12-04T05:55:01.823Z,988.93
2018-12-04T05:56:01.819Z,988.94
2018-12-04T05:57:01.817Z,988.96
2018-12-04T05:58:01.818Z,988.94
2018-12-04T05:59:01.805Z,988.97
2018-12-04T06:00:01.809Z,989.02
2018-12-04T06:01:01.797Z,988.94
2018-12-04T06:02:01.805Z,988.99
2018-12-04T06:03:01.801Z,988.98
2018-12-04T06:04:01.779Z,988.99
2018-12-04T06:05:01.777Z,989.02
2018-12-04T06:06:01.777Z,988.99
2018-12-04T06:07:01.767Z,988.99
2018-12-04T06:08:01.765Z,988.99
2018-12-04T06:09:01.823Z,989.06
2018-12-04T06:10:01.751Z,989.11
2018-12-04T06:11:01.746Z,989.08
2018-12-04T06:12:01.742Z,989.11
2018-12-04T06:13:01.737Z,989.18
2018-12-04T06:14:01.733Z,989.23
2018-12-04T06:15:01.728Z,989.22
2018-12-04T06:16:01.759Z,989.2
2018-12-04T06:17:01.717Z,989.25
2018-12-04T06:18:01.715Z,989.2
2018-12-04T06:19:01.710Z,989.25
2018-12-04T06:20:01.705Z,989.28
2018-12-04T06:21:01.698Z,989.3
2018-12-04T06:22:01.696Z,989.32
2018-12-04T06:23:01.689Z,989.32
2018-12-04T06:24:01.688Z,989.3
2018-12-04T06:25:01.695Z,989.27
2018-12-04T06:26:01.676Z,989.26
2018-12-04T06:27:01.676Z,989.29
2018-12-04T06:28:01.671Z,989.26
2018-12-04T06:29:01.661Z,989.27
2018-12-04T06:30:01.659Z,989.28
2018-12-04T06:31:02.452Z,989.36
2018-12-04T06:32:01.649Z,989.35
2018-12-04T06:33:01.641Z,989.41
2018-12-04T06:34:01.634Z,989.43
2018-12-04T06:35:01.633Z,989.46
2018-12-04T06:36:01.626Z,989.46
2018-12-04T06:37:01.623Z,989.43
2018-12-04T06:38:01.621Z,989.45
2018-12-04T06:39:01.622Z,989.46
2018-12-04T06:40:01.622Z,989.5
2018-12-04T06:41:01.607Z,989.54
2018-12-04T06:42:01.597Z,989.58
2018-12-04T06:43:01.599Z,989.62
2018-12-04T06:44:01.591Z,989.64
2018-12-04T06:45:01.587Z,989.64
2018-12-04T06:46:01.574Z,989.67
2018-12-04T06:47:01.571Z,989.69
2018-12-04T06:48:01.565Z,989.75
2018-12-04T06:49:01.563Z,989.79
2018-12-04T06:50:01.557Z,989.79
2018-12-04T06:51:01.562Z,989.8
2018-12-04T06:52:01.547Z,989.82
2018-12-04T06:53:01.543Z,989.84
2018-12-04T06:54:01.539Z,989.89
2018-12-04T06:55:01.532Z,989.89
2018-12-04T06:56:01.527Z,989.94
2018-12-04T06:57:01.522Z,989.9
2018-12-04T06:58:01.518Z,989.97
2018-12-04T06:59:01.514Z,989.98
2018-12-04T07:00:01.507Z,990.03
2018-12-04T07:01:01.502Z,990.06
2018-12-04T07:02:01.498Z,990.11
2018-12-04T07:03:01.497Z,990.16
2018-12-04T07:04:01.505Z,990.14
2018-12-04T07:05:01.484Z,990.18
2018-12-04T07:06:01.480Z,990.22
2018-12-04T07:07:01.492Z,990.22
2018-12-04T07:08:01.467Z,990.24
2018-12-04T07:09:01.468Z,990.24
2018-12-04T07:10:01.458Z,990.31
2018-12-04T07:11:02.477Z,990.34
2018-12-04T07:12:02.555Z,990.37
2018-12-04T07:13:01.443Z,990.41
2018-12-04T07:14:01.445Z,990.38
2018-12-04T07:15:01.437Z,990.38
2018-12-04T07:16:01.427Z,990.38
2018-12-04T07:17:01.445Z,990.41
2018-12-04T07:18:01.421Z,990.42
2018-12-04T07:19:01.411Z,990.48
2018-12-04T07:20:01.408Z,990.52
2018-12-04T07:21:01.403Z,990.55
2018-12-04T07:22:01.395Z,990.56
2018-12-04T07:23:01.392Z,990.53
2018-12-04T07:24:01.387Z,990.54
2018-12-04T07:25:01.381Z,990.62
2018-12-04T07:26:01.385Z,990.65
2018-12-04T07:27:01.371Z,990.66
2018-12-04T07:28:01.365Z,990.69
2018-12-04T07:29:01.358Z,990.73
2018-12-04T07:30:01.373Z,990.79
2018-12-04T07:31:01.351Z,990.78
2018-12-04T07:32:01.343Z,990.81
2018-12-04T07:33:01.344Z,990.83
2018-12-04T07:34:01.339Z,990.85
2018-12-04T07:35:01.333Z,990.89
2018-12-04T07:36:01.340Z,990.97
2018-12-04T07:37:01.335Z,990.95
2018-12-04T07:38:01.315Z,991
2018-12-04T07:39:01.309Z,990.96
2018-12-04T07:40:01.306Z,990.97
2018-12-04T07:41:01.299Z,990.99
2018-12-04T07:42:01.295Z,990.96
2018-12-04T07:43:01.291Z,991.04
2018-12-04T07:44:01.288Z,991.11
2018-12-04T07:45:01.282Z,991.15
2018-12-04T07:46:01.278Z,991.17
2018-12-04T07:47:01.275Z,991.17
2018-12-04T07:48:01.263Z,991.17
2018-12-04T07:49:01.262Z,991.17
2018-12-04T07:50:01.251Z,991.1
2018-12-04T07:51:01.246Z,991.22
2018-12-04T07:52:01.241Z,991.2
2018-12-04T07:53:01.238Z,991.2
2018-12-04T07:54:01.242Z,991.2
2018-12-04T07:55:01.226Z,991.19
2018-12-04T07:56:02.350Z,991.28
2018-12-04T07:57:01.218Z,991.32
2018-12-04T07:58:01.213Z,991.33
2018-12-04T07:59:01.206Z,991.39
2018-12-04T08:00:01.202Z,991.36
2018-12-04T08:01:01.204Z,991.43
2018-12-04T08:02:01.199Z,991.45
2018-12-04T08:03:01.188Z,991.45
2018-12-04T08:04:01.180Z,991.5
2018-12-04T08:05:01.176Z,991.49
2018-12-04T08:06:01.170Z,991.43
2018-12-04T08:07:01.176Z,991.49
2018-12-04T08:08:01.159Z,991.49
2018-12-04T08:09:01.156Z,991.5
2018-12-04T08:10:01.150Z,991.52
2018-12-04T08:11:01.144Z,991.56
2018-12-04T08:12:01.154Z,991.56
2018-12-04T08:13:01.134Z,991.54
2018-12-04T08:14:01.130Z,991.62
2018-12-04T08:15:01.130Z,991.62
2018-12-04T08:16:01.119Z,991.63
2018-12-04T08:17:01.114Z,991.68
2018-12-04T08:18:01.122Z,991.67
2018-12-04T08:19:01.109Z,991.67
2018-12-04T08:20:01.102Z,991.68
2018-12-04T08:21:01.093Z,991.69
2018-12-04T08:22:01.102Z,991.7
2018-12-04T08:23:01.133Z,991.75
2018-12-04T08:24:01.080Z,991.74
2018-12-04T08:25:01.080Z,991.76
2018-12-04T08:26:01.073Z,991.75
2018-12-04T08:27:01.066Z,991.81
2018-12-04T08:28:01.070Z,991.82
2018-12-04T08:29:01.066Z,991.8
2018-12-04T08:30:01.051Z,991.75
2018-12-04T08:31:01.047Z,991.8
2018-12-04T08:32:01.047Z,991.85
2018-12-04T08:33:01.037Z,991.82
2018-12-04T08:34:01.036Z,991.86
2018-12-04T08:35:01.032Z,991.92
2018-12-04T08:36:01.038Z,991.91
2018-12-04T08:37:01.034Z,991.96
2018-12-04T08:38:01.016Z,991.97
2018-12-04T08:39:01.015Z,992.01
2018-12-04T08:40:01.016Z,992.04
2018-12-04T08:41:01.013Z,992.1
2018-12-04T08:42:00.996Z,992.08
2018-12-04T08:43:00.995Z,992.09
2018-12-04T08:44:00.987Z,992.13
2018-12-04T08:45:00.983Z,992.13
2018-12-04T08:46:00.978Z,992.21
2018-12-04T08:47:00.982Z,992.28
2018-12-04T08:48:00.968Z,992.32
2018-12-04T08:49:00.966Z,992.3
2018-12-04T08:50:01.029Z,992.38
2018-12-04T08:51:00.959Z,992.35
2018-12-04T08:52:00.957Z,992.39
2018-12-04T08:53:00.946Z,992.41
2018-12-04T08:54:00.943Z,992.4
2018-12-04T08:55:00.938Z,992.42
2018-12-04T08:56:00.935Z,992.39
2018-12-04T08:57:00.945Z,992.38
2018-12-04T08:58:00.926Z,992.46
2018-12-04T08:59:00.920Z,992.48
2018-12-04T09:00:00.913Z,992.53
2018-12-04T09:01:01.299Z,992.55
2018-12-04T09:02:00.913Z,992.58
2018-12-04T09:03:00.904Z,992.64
2018-12-04T09:04:00.909Z,992.71
2018-12-04T09:05:00.893Z,992.71
2018-12-04T09:06:00.898Z,992.72
2018-12-04T09:07:00.888Z,992.72
2018-12-04T09:08:00.882Z,992.75
2018-12-04T09:09:00.878Z,992.79
2018-12-04T09:10:00.882Z,992.81
2018-12-04T09:11:00.870Z,992.87
2018-12-04T09:12:00.866Z,992.86
2018-12-04T09:13:00.860Z,992.92
2018-12-04T09:14:00.869Z,992.95
2018-12-04T09:15:00.861Z,992.98
2018-12-04T09:16:00.850Z,993.05
2018-12-04T09:17:00.851Z,993.01
2018-12-04T09:18:00.840Z,993.04
2018-12-04T09:19:00.854Z,993.13
2018-12-04T09:20:00.878Z,993.12
2018-12-04T09:21:01.027Z,993.15
2018-12-04T09:22:00.863Z,993.23
2018-12-04T09:23:00.848Z,993.21
2018-12-04T09:24:00.893Z,993.27
2018-12-04T09:25:00.814Z,993.22
2018-12-04T09:26:00.825Z,993.22
2018-12-04T09:27:05.430Z,993.25
2018-12-04T09:28:00.812Z,993.28
2018-12-04T09:29:00.809Z,993.29
2018-12-04T09:30:00.792Z,993.25
2018-12-04T09:31:00.786Z,993.3
2018-12-04T09:32:00.784Z,993.28
2018-12-04T09:33:00.778Z,993.33
2018-12-04T09:34:00.774Z,993.36
2018-12-04T09:35:00.774Z,993.42
2018-12-04T09:36:00.764Z,993.45
2018-12-04T09:37:00.759Z,993.47
2018-12-04T09:38:00.759Z,993.43
2018-12-04T09:39:00.749Z,993.43
2018-12-04T09:40:00.745Z,993.46
2018-12-04T09:41:00.743Z,993.47
2018-12-04T09:42:00.737Z,993.43
2018-12-04T09:43:04.116Z,993.48
2018-12-04T09:44:00.729Z,993.48
2018-12-04T09:45:00.727Z,993.45
2018-12-04T09:46:00.724Z,993.46
2018-12-04T09:47:00.713Z,993.53
2018-12-04T09:48:00.722Z,993.5
2018-12-04T09:49:00.709Z,993.49
2018-12-04T09:50:00.701Z,993.44
2018-12-04T09:51:00.719Z,993.45
2018-12-04T09:52:00.701Z,993.51
2018-12-04T09:53:00.713Z,993.53
2018-12-04T09:54:00.685Z,993.55
2018-12-04T09:55:00.684Z,993.56
2018-12-04T09:56:00.678Z,993.53
2018-12-04T09:57:00.672Z,993.52
2018-12-04T09:58:00.669Z,993.49
2018-12-04T09:59:00.665Z,993.52
2018-12-04T10:00:00.663Z,993.6
2018-12-04T10:01:00.656Z,993.56
2018-12-04T10:02:00.669Z,993.57
2018-12-04T10:03:00.663Z,993.54
2018-12-04T10:04:00.648Z,993.56
2018-12-04T10:05:00.658Z,993.59
2018-12-04T10:06:00.640Z,993.62
2018-12-04T10:07:00.633Z,993.65
2018-12-04T10:08:00.632Z,993.64
2018-12-04T10:09:00.628Z,993.6
2018-12-04T10:10:00.869Z,993.68
2018-12-04T10:11:00.620Z,993.69
2018-12-04T10:12:00.616Z,993.68
2018-12-04T10:13:00.614Z,993.7
2018-12-04T10:14:00.607Z,993.67
2018-12-04T10:15:00.625Z,993.66
2018-12-04T10:16:00.606Z,993.66
2018-12-04T10:17:00.599Z,993.65
2018-12-04T10:18:00.600Z,993.67
2018-12-04T10:19:00.599Z,993.69
2018-12-04T10:20:00.600Z,993.67
2018-12-04T10:21:00.585Z,993.71
2018-12-04T10:22:00.579Z,993.71
2018-12-04T10:23:00.576Z,993.71
2018-12-04T10:24:00.576Z,993.7
2018-12-04T10:25:00.569Z,993.7
2018-12-04T10:26:00.563Z,993.72
2018-12-04T10:27:00.564Z,993.71
2018-12-04T10:28:00.557Z,993.7
2018-12-04T10:29:00.552Z,993.72
2018-12-04T10:30:00.549Z,993.63
2018-12-04T10:31:00.546Z,993.68
2018-12-04T10:32:00.541Z,993.71
2018-12-04T10:33:00.539Z,993.73
2018-12-04T10:34:00.535Z,993.74
2018-12-04T10:35:00.533Z,993.73
2018-12-04T10:36:00.533Z,993.77
2018-12-04T10:37:00.521Z,993.73
2018-12-04T10:38:00.567Z,993.75
2018-12-04T10:39:00.522Z,993.79
2018-12-04T10:40:00.507Z,993.74
2018-12-04T10:41:00.505Z,993.77
2018-12-04T10:42:00.509Z,993.77
2018-12-04T10:43:00.498Z,993.79
2018-12-04T10:44:00.491Z,993.78
2018-12-04T10:45:00.490Z,993.76
2018-12-04T10:46:00.485Z,993.82
2018-12-04T10:47:00.482Z,993.81
2018-12-04T10:48:00.476Z,993.78
2018-12-04T10:49:00.474Z,993.78
2018-12-04T10:50:00.472Z,993.79
2018-12-04T10:51:00.497Z,993.79
2018-12-04T10:52:00.463Z,993.79
2018-12-04T10:53:00.454Z,993.81
2018-12-04T10:54:00.452Z,993.79
2018-12-04T10:55:00.448Z,993.88
2018-12-04T10:56:00.441Z,993.93
2018-12-04T10:57:00.438Z,993.95
2018-12-04T10:58:00.453Z,994
2018-12-04T10:59:00.452Z,994.01
2018-12-04T11:00:00.425Z,993.97
2018-12-04T11:01:00.421Z,993.96
2018-12-04T11:02:00.422Z,993.98
2018-12-04T11:03:00.415Z,994.01
2018-12-04T11:04:00.414Z,994.01
2018-12-04T11:05:00.423Z,993.99
2018-12-04T11:06:00.397Z,994.03
2018-12-04T11:07:00.394Z,994.07
2018-12-04T11:08:00.387Z,994.13
2018-12-04T11:09:00.381Z,994.12
2018-12-04T11:10:00.376Z,994.11
2018-12-04T11:11:00.377Z,994.11
2018-12-04T11:12:00.370Z,994.09
2018-12-04T11:13:00.363Z,994.08
2018-12-04T11:14:00.359Z,994.11
2018-12-04T11:15:00.361Z,994.08
2018-12-04T11:16:00.351Z,994.07
2018-12-04T11:17:00.353Z,994.06
2018-12-04T11:18:00.340Z,994.08
2018-12-04T11:19:00.335Z,994.08
2018-12-04T11:20:00.335Z,994.09
2018-12-04T11:21:00.337Z,994.1
2018-12-04T11:22:00.323Z,994.12
2018-12-04T11:23:00.314Z,994.09
2018-12-04T11:24:00.309Z,994.12
2018-12-04T11:25:01.185Z,994.1
2018-12-04T11:26:00.302Z,994.1
2018-12-04T11:27:00.295Z,994.08
2018-12-04T11:28:00.291Z,994.14
2018-12-04T11:29:00.288Z,994.24
2018-12-04T11:30:00.279Z,994.17
2018-12-04T11:31:00.276Z,994.29
2018-12-04T11:32:00.270Z,994.34
2018-12-04T11:33:00.266Z,994.37
2018-12-04T11:34:00.263Z,994.43
2018-12-04T11:35:00.255Z,994.37
2018-12-04T11:36:00.251Z,994.38
2018-12-04T11:37:00.355Z,994.39
2018-12-04T11:38:00.238Z,994.42
2018-12-04T11:39:00.237Z,994.41
2018-12-04T11:40:00.230Z,994.45
2018-12-04T11:41:00.224Z,994.43
2018-12-04T11:42:00.224Z,994.45
2018-12-04T11:43:00.218Z,994.45
2018-12-04T11:44:00.217Z,994.48
2018-12-04T11:45:00.217Z,994.46
2018-12-04T11:46:00.202Z,994.49
2018-12-04T11:47:00.197Z,994.45
2018-12-04T11:48:00.200Z,994.45
2018-12-04T11:49:00.192Z,994.41
2018-12-04T11:50:00.184Z,994.46
2018-12-04T11:51:00.399Z,994.4
2018-12-04T11:52:00.181Z,994.45
2018-12-04T11:53:00.181Z,994.45
2018-12-04T11:54:00.163Z,994.47
2018-12-04T11:55:00.155Z,994.5
2018-12-04T11:56:00.160Z,994.5
2018-12-04T11:57:00.146Z,994.54
2018-12-04T11:58:00.145Z,994.57
2018-12-04T11:59:00.144Z,994.56
2018-12-04T12:00:00.139Z,994.57
2018-12-04T12:01:00.126Z,994.64
2018-12-04T12:02:00.123Z,994.63
2018-12-04T12:03:00.137Z,994.69
2018-12-04T12:04:00.121Z,994.68
2018-12-04T12:05:00.109Z,994.75
2018-12-04T12:06:00.103Z,994.73
2018-12-04T12:07:00.099Z,994.74
2018-12-04T12:08:00.095Z,994.76
2018-12-04T12:09:00.091Z,994.77
2018-12-04T12:10:00.905Z,994.8
2018-12-04T12:11:00.077Z,994.78
2018-12-04T12:12:00.081Z,994.78
2018-12-04T12:13:00.083Z,994.79
2018-12-04T12:14:00.067Z,994.83
2018-12-04T12:15:00.061Z,994.82
2018-12-04T12:16:00.059Z,994.83
2018-12-04T12:17:00.059Z,994.88
2018-12-04T12:18:00.046Z,994.95
2018-12-04T12:19:00.043Z,994.94
2018-12-04T12:20:00.042Z,994.95
2018-12-04T12:21:00.034Z,994.97
2018-12-04T12:22:00.035Z,994.95
2018-12-04T12:23:00.026Z,994.94
2018-12-04T12:24:00.026Z,994.98
2018-12-04T12:25:00.028Z,995
2018-12-04T12:26:00.006Z,994.96
2018-12-04T12:27:00.003Z,995.02
2018-12-04T12:27:59.996Z,995
2018-12-04T12:28:59.997Z,995.02
2018-12-04T12:29:59.992Z,995.02
2018-12-04T12:30:59.985Z,995